createdAt,value
2019-02-27T00:01:16.746Z,99.90
2019-02-27T00:03:54.817Z,99.90
2019-02-27T00:06:35.277Z,99.90
2019-02-27T00:09:15.794Z,99.90
2019-02-27T00:11:56.272Z,99.90
2019-02-27T00:14:37.590Z,99.90
2019-02-27T00:17:18.819Z,99.90
2019-02-27T00:20:04.079Z,99.90
2019-02-27T00:22:42.540Z,99.90
2019-02-27T00:25:23.412Z,99.90
2019-02-27T00:28:04.042Z,99.90
2019-02-27T00:30:44.884Z,99.90
2019-02-27T00:33:28.579Z,99.90
2019-02-27T00:36:11.977Z,99.90
2019-02-27T00:38:51.467Z,99.90
2019-02-27T00:41:31.797Z,99.90
2019-02-27T00:44:12.650Z,99.90
2019-02-27T00:46:53.697Z,99.90
2019-02-27T00:49:34.325Z,99.90
2019-02-27T00:52:18.004Z,99.90
2019-02-27T00:54:57.393Z,99.90
2019-02-27T00:57:37.768Z,99.90
2019-02-27T01:00:18.960Z,99.90
2019-02-27T01:02:47.585Z,99.90
2019-02-27T01:08:21.833Z,99.90
2019-02-27T01:11:02.373Z,99.90
2019-02-27T01:13:43.416Z,99.90
2019-02-27T01:16:24.137Z,99.90
2019-02-27T01:19:05.369Z,99.90
2019-02-27T01:21:45.809Z,99.90
2019-02-27T01:24:26.600Z,99.90
2019-02-27T01:27:07.076Z,99.90
2019-02-27T01:29:50.889Z,99.90
2019-02-27T01:32:31.138Z,99.90
2019-02-27T01:35:17.467Z,99.90
2019-02-27T01:37:55.212Z,99.90
2019-02-27T01:40:36.113Z,99.90
2019-02-27T01:43:16.680Z,99.90
2019-02-27T01:45:57.985Z,99.90
2019-02-27T01:48:42.703Z,99.90
2019-02-27T01:51:09.106Z,99.90
2019-02-27T01:53:37.941Z,99.90
2019-02-27T01:56:07.912Z,99.90
2019-02-27T01:58:36.500Z,99.90
2019-02-27T02:01:05.428Z,99.90
2019-02-27T02:03:53.332Z,99.90
2019-02-27T02:06:41.263Z,99.90
2019-02-27T02:09:21.849Z,99.90
2019-02-27T02:12:03.040Z,99.90
2019-02-27T02:14:44.010Z,99.90
2019-02-27T02:17:24.698Z,99.90
2019-02-27T02:20:05.387Z,99.90
2019-02-27T02:22:46.301Z,99.90
2019-02-27T02:25:27.991Z,99.90
2019-02-27T02:28:09.113Z,99.90
2019-02-27T02:30:50.473Z,99.90
2019-02-27T02:33:31.261Z,99.90
2019-02-27T02:36:12.314Z,99.90
2019-02-27T02:38:52.997Z,99.90
2019-02-27T02:41:33.640Z,99.90
2019-02-27T02:44:13.987Z,99.90
2019-02-27T02:46:55.186Z,99.90
2019-02-27T02:49:42.020Z,99.90
2019-02-27T02:52:19.582Z,99.90
2019-02-27T02:55:00.423Z,99.90
2019-02-27T02:57:41.297Z,99.90
2019-02-27T03:00:22.509Z,99.90
2019-02-27T03:03:02.943Z,99.90
2019-02-27T03:05:43.531Z,99.90
2019-02-27T03:08:24.144Z,99.90
2019-02-27T03:11:05.416Z,99.90
2019-02-27T03:13:46.566Z,99.90
2019-02-27T03:16:27.397Z,99.90
2019-02-27T03:19:08.556Z,99.90
2019-02-27T03:21:49.339Z,99.90
2019-02-27T03:24:29.778Z,99.90
2019-02-27T03:27:11.037Z,99.90
2019-02-27T03:29:53.370Z,99.90
2019-02-27T03:32:41.169Z,99.90
2019-02-27T03:35:16.080Z,99.90
2019-02-27T03:37:57.389Z,99.90
2019-02-27T03:41:04.724Z,99.90
2019-02-27T03:44:13.337Z,99.90
2019-02-27T03:47:22.014Z,99.90
2019-02-27T03:50:29.285Z,99.90
2019-02-27T03:53:36.543Z,99.90
2019-02-27T03:56:44.767Z,99.90
2019-02-27T03:59:52.666Z,99.90
2019-02-27T04:02:33.516Z,99.90
2019-02-27T04:05:14.365Z,99.90
2019-02-27T04:11:42.561Z,99.90
2019-02-27T04:14:21.372Z,99.90
2019-02-27T04:17:05.404Z,99.90
2019-02-27T04:19:44.369Z,99.90
2019-02-27T04:22:25.196Z,99.90
2019-02-27T04:25:06.074Z,99.90
2019-02-27T04:27:47.277Z,99.90
2019-02-27T04:30:28.564Z,99.90
2019-02-27T04:33:09.242Z,99.90
2019-02-27T04:35:50.376Z,99.90
2019-02-27T04:38:30.865Z,99.90
2019-02-27T04:41:11.341Z,99.90
2019-02-27T04:43:52.359Z,99.90
2019-02-27T04:46:32.863Z,99.90
2019-02-27T04:49:13.944Z,99.90
2019-02-27T04:51:54.919Z,99.90
2019-02-27T04:54:35.630Z,99.90
2019-02-27T04:57:16.185Z,99.90
2019-02-27T04:59:57.446Z,99.90
2019-02-27T05:02:38.329Z,99.90
2019-02-27T05:05:19.427Z,99.90
2019-02-27T05:08:00.743Z,99.90
2019-02-27T05:10:41.477Z,99.90
2019-02-27T05:13:22.380Z,99.90
2019-02-27T05:16:03.696Z,99.90
2019-02-27T05:18:44.672Z,99.90
2019-02-27T05:21:25.509Z,99.90
2019-02-27T05:24:07.747Z,99.90
2019-02-27T05:26:48.636Z,99.90
2019-02-27T05:29:29.100Z,99.90
2019-02-27T05:32:09.744Z,99.90
2019-02-27T05:34:50.547Z,99.90
2019-02-27T05:37:31.058Z,99.90
2019-02-27T05:40:12.201Z,99.90
2019-02-27T05:42:53.505Z,99.90
2019-02-27T05:45:34.621Z,99.90
2019-02-27T05:48:19.609Z,99.90
2019-02-27T05:50:58.275Z,99.90
2019-02-27T05:53:39.425Z,99.90
2019-02-27T05:56:20.726Z,99.90
2019-02-27T05:59:01.718Z,99.90
2019-02-27T06:01:42.880Z,99.90
2019-02-27T06:04:11.472Z,99.90
2019-02-27T06:06:59.695Z,99.90
2019-02-27T06:09:49.038Z,99.90
2019-02-27T06:12:30.186Z,99.90
2019-02-27T06:14:58.747Z,99.90
2019-02-27T06:17:49.074Z,99.90
2019-02-27T06:20:38.891Z,99.90
2019-02-27T06:23:25.907Z,99.90
2019-02-27T06:26:13.831Z,99.90
2019-02-27T06:29:01.733Z,99.90
2019-02-27T06:31:49.668Z,99.90
2019-02-27T06:34:37.928Z,99.90
2019-02-27T06:37:25.840Z,99.90
2019-02-27T06:39:54.433Z,99.90
2019-02-27T06:42:42.341Z,99.90
2019-02-27T06:45:30.262Z,99.90
2019-02-27T06:48:18.174Z,99.90
2019-02-27T06:54:00.353Z,99.90
2019-02-27T06:56:48.297Z,99.90
2019-02-27T06:59:36.184Z,99.90
2019-02-27T07:02:24.125Z,99.90
2019-02-27T07:05:13.562Z,99.90
2019-02-27T07:08:02.206Z,99.90
2019-02-27T07:10:51.280Z,99.90
2019-02-27T07:16:25.393Z,99.90
2019-02-27T07:19:06.142Z,99.90
2019-02-27T07:21:46.948Z,99.90
2019-02-27T07:24:27.455Z,99.90
2019-02-27T07:27:07.912Z,99.90
2019-02-27T07:29:48.497Z,99.90
2019-02-27T07:32:31.426Z,99.90
2019-02-27T07:35:11.856Z,99.90
2019-02-27T07:37:52.848Z,99.90
2019-02-27T07:40:33.633Z,99.90
2019-02-27T07:43:14.400Z,99.90
2019-02-27T07:45:55.536Z,99.90
2019-02-27T07:48:36.000Z,99.90
2019-02-27T07:51:16.996Z,99.90
2019-02-27T07:53:57.838Z,99.90
2019-02-27T07:56:38.467Z,99.90
2019-02-27T07:59:18.840Z,99.90
2019-02-27T08:02:02.395Z,99.90
2019-02-27T08:04:42.541Z,99.90
2019-02-27T08:07:23.640Z,99.90
2019-02-27T08:10:04.816Z,99.90
2019-02-27T08:12:45.411Z,99.90
2019-02-27T08:15:16.013Z,99.90
2019-02-27T08:17:44.627Z,99.90
2019-02-27T08:20:32.596Z,99.90
2019-02-27T08:23:20.631Z,99.70
2019-02-27T08:26:08.568Z,98.90
2019-02-27T08:28:56.540Z,97.80
2019-02-27T08:31:44.573Z,97.70
2019-02-27T08:34:32.540Z,96.30
2019-02-27T08:37:20.420Z,95.70
2019-02-27T08:40:29.096Z,95.10
2019-02-27T08:43:16.992Z,94.50
2019-02-27T08:46:05.194Z,93.50
2019-02-27T08:48:53.059Z,93.10
2019-02-27T08:51:42.112Z,92.80
2019-02-27T08:54:32.996Z,92.10
2019-02-27T08:57:20.134Z,91.70
2019-02-27T09:00:28.790Z,91.90
2019-02-27T09:03:20.405Z,91.10
2019-02-27T09:06:06.529Z,90.10
2019-02-27T09:08:54.472Z,90.30
2019-02-27T09:11:42.421Z,90.20
2019-02-27T09:14:23.443Z,88.80
2019-02-27T09:17:04.365Z,89.10
2019-02-27T09:19:45.678Z,88.80
2019-02-27T09:22:27.628Z,87.90
2019-02-27T09:25:08.284Z,88.50
2019-02-27T09:27:48.820Z,89.00
2019-02-27T09:30:30.226Z,90.20
2019-02-27T09:33:11.133Z,90.50
2019-02-27T09:35:51.786Z,90.10
2019-02-27T09:38:32.837Z,89.30
2019-02-27T09:41:13.528Z,88.20
2019-02-27T09:43:54.534Z,89.20
2019-02-27T09:46:35.323Z,87.60
2019-02-27T09:49:16.387Z,87.70
2019-02-27T09:51:57.345Z,85.90
2019-02-27T09:54:38.333Z,85.50
2019-02-27T09:57:19.397Z,85.10
2019-02-27T10:00:00.336Z,86.70
2019-02-27T10:02:43.118Z,84.40
2019-02-27T10:05:23.597Z,84.80
2019-02-27T10:08:04.138Z,82.40
2019-02-27T10:10:45.843Z,83.10
2019-02-27T10:13:26.592Z,80.10
2019-02-27T10:16:07.155Z,80.60
2019-02-27T10:18:48.220Z,81.30
2019-02-27T10:21:28.809Z,82.20
2019-02-27T10:24:09.460Z,80.40
2019-02-27T10:26:53.527Z,81.20
2019-02-27T10:29:32.892Z,79.50
2019-02-27T10:32:13.997Z,78.10
2019-02-27T10:34:55.054Z,76.50
2019-02-27T10:37:35.556Z,75.20
2019-02-27T10:40:16.304Z,75.90
2019-02-27T10:42:55.826Z,74.60
2019-02-27T10:48:50.641Z,74.60
2019-02-27T10:51:38.552Z,74.30
2019-02-27T10:54:26.604Z,74.40
2019-02-27T10:57:14.541Z,75.30
2019-02-27T11:00:02.444Z,76.70
2019-02-27T11:02:52.445Z,76.50
2019-02-27T11:08:46.989Z,72.50
2019-02-27T11:11:34.934Z,73.10
2019-02-27T11:14:15.431Z,73.90
2019-02-27T11:16:55.953Z,71.10
2019-02-27T11:19:43.860Z,71.80
2019-02-27T11:22:32.333Z,71.70
2019-02-27T11:25:42.076Z,69.30
2019-02-27T11:28:30.081Z,70.20
2019-02-27T11:31:18.034Z,70.10
2019-02-27T11:34:07.805Z,69.70
2019-02-27T11:36:55.552Z,70.00
2019-02-27T11:39:43.477Z,70.40
2019-02-27T11:45:24.991Z,66.00
2019-02-27T11:48:14.499Z,65.20
2019-02-27T11:51:02.515Z,63.00
2019-02-27T11:53:50.429Z,64.20
2019-02-27T11:59:32.055Z,62.80
2019-02-27T12:02:28.614Z,64.60
2019-02-27T12:05:34.069Z,64.60
2019-02-27T12:11:26.720Z,63.10
2019-02-27T12:14:14.626Z,62.50
2019-02-27T12:16:55.426Z,62.20
2019-02-27T12:19:35.972Z,63.10
2019-02-27T12:22:16.803Z,61.30
2019-02-27T12:24:56.144Z,60.10
2019-02-27T12:27:49.169Z,59.80
2019-02-27T12:30:36.967Z,59.90
2019-02-27T12:33:23.277Z,60.10
2019-02-27T12:36:11.208Z,60.30
2019-02-27T12:38:59.144Z,60.60
2019-02-27T12:41:47.060Z,59.90
2019-02-27T12:44:35.716Z,59.20
2019-02-27T12:47:23.677Z,59.60
2019-02-27T12:50:31.610Z,58.50
2019-02-27T12:53:21.558Z,57.90
2019-02-27T12:56:09.205Z,58.00
2019-02-27T12:58:58.720Z,55.80
2019-02-27T13:01:50.764Z,56.70
2019-02-27T13:04:36.286Z,55.20
2019-02-27T13:07:24.220Z,53.80
2019-02-27T13:10:34.037Z,53.90
2019-02-27T13:13:23.295Z,50.50
2019-02-27T13:15:51.243Z,52.40
2019-02-27T13:18:39.189Z,51.80
2019-02-27T13:21:27.184Z,51.50
2019-02-27T13:24:15.541Z,52.80
2019-02-27T13:27:08.743Z,52.90
2019-02-27T13:29:56.776Z,51.40
2019-02-27T13:32:43.937Z,50.30
2019-02-27T13:35:31.950Z,49.20
2019-02-27T13:38:19.857Z,48.70
2019-02-27T13:41:10.435Z,50.00
2019-02-27T13:43:58.199Z,49.40
2019-02-27T13:49:40.975Z,49.80
2019-02-27T13:52:28.916Z,49.70
2019-02-27T13:55:36.190Z,50.00
2019-02-27T13:58:24.118Z,50.10
2019-02-27T14:01:12.206Z,50.10
2019-02-27T14:04:01.717Z,49.10
2019-02-27T14:06:49.793Z,50.50
2019-02-27T14:09:39.080Z,51.00
2019-02-27T14:12:27.291Z,49.30
2019-02-27T14:15:37.574Z,48.80
2019-02-27T14:18:18.528Z,49.30
2019-02-27T14:21:01.647Z,50.10
2019-02-27T14:23:42.321Z,50.10
2019-02-27T14:26:22.736Z,49.70
2019-02-27T14:28:52.219Z,49.40
2019-02-27T14:31:21.592Z,48.70
2019-02-27T14:33:51.290Z,48.10
2019-02-27T14:36:20.372Z,49.00
2019-02-27T14:38:49.893Z,49.00
2019-02-27T14:41:18.492Z,48.10
2019-02-27T14:43:47.063Z,48.20
2019-02-27T14:46:15.617Z,48.90
2019-02-27T14:48:44.240Z,49.40
2019-02-27T14:51:12.792Z,48.80
2019-02-27T14:54:00.884Z,49.50
2019-02-27T14:56:49.510Z,49.40
2019-02-27T14:59:38.369Z,49.70
2019-02-27T15:02:26.274Z,49.70
2019-02-27T15:05:14.280Z,49.60
2019-02-27T15:08:02.180Z,49.50
2019-02-27T15:10:50.141Z,49.60
2019-02-27T15:13:38.069Z,50.60
2019-02-27T15:16:25.980Z,49.50
2019-02-27T15:19:07.243Z,49.50
2019-02-27T15:21:48.447Z,49.30
2019-02-27T15:24:31.963Z,54.60
2019-02-27T15:27:11.578Z,53.00
2019-02-27T15:29:52.882Z,52.80
2019-02-27T15:32:33.326Z,53.10
2019-02-27T15:35:15.523Z,52.00
2019-02-27T15:37:44.631Z,51.00
2019-02-27T15:40:21.172Z,51.50
2019-02-27T15:42:49.796Z,52.20
2019-02-27T15:45:47.582Z,51.70
2019-02-27T15:48:27.280Z,51.30
2019-02-27T15:51:15.291Z,50.90
2019-02-27T15:54:03.195Z,50.20
2019-02-27T15:56:51.136Z,50.40
2019-02-27T15:59:41.595Z,50.60
2019-02-27T16:02:09.445Z,50.20
2019-02-27T16:04:38.113Z,50.60
2019-02-27T16:07:07.037Z,50.90
2019-02-27T16:09:35.588Z,50.80
2019-02-27T16:12:04.260Z,51.10
2019-02-27T16:14:32.872Z,51.50
2019-02-27T16:17:01.445Z,51.50
2019-02-27T16:19:49.371Z,51.70
2019-02-27T16:22:37.280Z,52.00
2019-02-27T16:25:45.944Z,53.10
2019-02-27T16:28:33.844Z,53.10
2019-02-27T16:31:21.806Z,53.90
2019-02-27T16:34:09.714Z,54.20
2019-02-27T16:36:57.657Z,54.70
2019-02-27T16:39:45.705Z,54.30
2019-02-27T16:42:36.428Z,54.60
2019-02-27T16:45:45.459Z,54.30
2019-02-27T16:51:40.273Z,54.80
2019-02-27T16:54:28.177Z,54.80
2019-02-27T16:57:21.187Z,55.00
2019-02-27T17:00:26.401Z,55.30
2019-02-27T17:03:14.339Z,55.60
2019-02-27T17:06:02.269Z,59.40
2019-02-27T17:08:50.172Z,56.50
2019-02-27T17:11:38.121Z,56.10
2019-02-27T17:14:26.016Z,56.30
2019-02-27T17:17:16.146Z,56.60
2019-02-27T17:19:56.569Z,56.70
2019-02-27T17:22:37.688Z,56.90
2019-02-27T17:25:18.984Z,57.40
2019-02-27T17:27:59.336Z,58.00
2019-02-27T17:30:40.555Z,58.40
2019-02-27T17:33:21.464Z,58.00
2019-02-27T17:36:02.508Z,58.30
2019-02-27T17:38:45.013Z,58.50
2019-02-27T17:41:26.193Z,58.90
2019-02-27T17:44:06.833Z,59.20
2019-02-27T17:46:48.370Z,63.60
2019-02-27T17:49:28.659Z,63.30
2019-02-27T17:52:11.526Z,64.30
2019-02-27T17:54:52.223Z,63.60
2019-02-27T17:57:33.416Z,63.20
2019-02-27T18:00:16.014Z,63.60
2019-02-27T18:02:57.479Z,64.10
2019-02-27T18:05:26.964Z,63.30
2019-02-27T18:08:29.912Z,64.60
2019-02-27T18:11:05.040Z,64.60
2019-02-27T18:13:36.153Z,64.40
2019-02-27T18:19:09.437Z,64.80
2019-02-27T18:21:49.991Z,65.60
2019-02-27T18:24:33.168Z,66.20
2019-02-27T18:27:12.520Z,65.90
2019-02-27T18:29:51.595Z,65.90
2019-02-27T18:32:40.052Z,66.20
2019-02-27T18:35:40.836Z,67.20
2019-02-27T18:38:19.304Z,68.10
2019-02-27T18:44:14.192Z,69.20
2019-02-27T18:47:02.449Z,69.70
2019-02-27T18:49:52.186Z,70.30
2019-02-27T18:52:41.268Z,74.90
2019-02-27T18:55:30.933Z,72.60
2019-02-27T19:01:41.397Z,73.70
2019-02-27T19:04:28.548Z,74.30
2019-02-27T19:07:17.222Z,74.90
2019-02-27T19:09:47.401Z,75.30
2019-02-27T19:12:16.034Z,75.80
2019-02-27T19:14:44.649Z,76.40
2019-02-27T19:17:13.611Z,76.90
2019-02-27T19:19:42.289Z,77.10
2019-02-27T19:22:11.336Z,77.80
2019-02-27T19:25:00.015Z,78.20
2019-02-27T19:28:03.283Z,79.20
2019-02-27T19:30:41.842Z,79.60
2019-02-27T19:33:09.116Z,80.60
2019-02-27T19:35:57.542Z,81.60
2019-02-27T19:38:47.523Z,82.30
2019-02-27T19:41:39.643Z,83.60
2019-02-27T19:44:28.635Z,84.40
2019-02-27T19:47:18.455Z,86.50
2019-02-27T19:50:42.454Z,86.70
2019-02-27T19:53:16.118Z,87.40
2019-02-27T19:56:04.252Z,89.10
2019-02-27T19:58:52.230Z,89.60
2019-02-27T20:01:21.002Z,90.20
2019-02-27T20:03:50.262Z,90.70
2019-02-27T20:06:18.957Z,92.50
2019-02-27T20:08:47.656Z,93.10
2019-02-27T20:11:16.294Z,94.00
2019-02-27T20:13:44.900Z,94.00
2019-02-27T20:16:13.608Z,94.70
2019-02-27T20:18:43.659Z,94.60
2019-02-27T20:21:25.126Z,95.50
2019-02-27T20:24:14.285Z,95.60
2019-02-27T20:26:51.387Z,95.50
2019-02-27T20:29:32.434Z,96.60
2019-02-27T20:32:13.849Z,96.20
2019-02-27T20:34:54.689Z,96.40
2019-02-27T20:37:37.145Z,96.80
2019-02-27T20:40:17.793Z,97.10
2019-02-27T20:42:59.005Z,97.60
2019-02-27T20:45:40.069Z,97.90
2019-02-27T20:48:10.011Z,98.40
2019-02-27T20:50:47.042Z,98.70
2019-02-27T20:53:15.704Z,99.20
2019-02-27T20:55:44.271Z,99.90
2019-02-27T20:58:16.389Z,99.90
2019-02-27T21:00:43.203Z,99.90
2019-02-27T21:03:31.137Z,99.90
2019-02-27T21:06:19.041Z,99.90
2019-02-27T21:09:11.100Z,99.90
2019-02-27T21:11:57.117Z,99.90
2019-02-27T21:14:45.034Z,99.90
2019-02-27T21:17:16.490Z,99.90
2019-02-27T21:20:22.930Z,99.90
2019-02-27T21:23:03.530Z,99.90
2019-02-27T21:25:48.714Z,99.90
2019-02-27T21:28:26.768Z,99.90
2019-02-27T21:31:07.576Z,99.90
2019-02-27T21:33:48.131Z,99.90
2019-02-27T21:36:28.505Z,99.90
2019-02-27T21:39:08.893Z,99.90
2019-02-27T21:41:49.428Z,99.90
2019-02-27T21:44:25.297Z,99.90
2019-02-27T21:46:48.192Z,99.90
2019-02-27T21:49:17.032Z,99.90
2019-02-27T21:51:48.208Z,99.90
2019-02-27T21:54:15.898Z,99.90
2019-02-27T21:56:44.457Z,99.90
2019-02-27T21:59:13.023Z,99.90
2019-02-27T22:01:41.609Z,99.90
2019-02-27T22:04:10.928Z,99.90
2019-02-27T22:06:59.558Z,99.90
2019-02-27T22:09:48.352Z,99.90
2019-02-27T22:12:36.297Z,99.90
2019-02-27T22:15:45.171Z,99.90
2019-02-27T22:18:33.101Z,99.90
2019-02-27T22:21:21.261Z,99.90
2019-02-27T22:24:02.308Z,99.90
2019-02-27T22:26:43.192Z,99.90
2019-02-27T22:29:25.215Z,99.90
2019-02-27T22:32:06.342Z,99.90
2019-02-27T22:34:34.845Z,99.90
2019-02-27T22:37:03.443Z,99.90
2019-02-27T22:39:32.699Z,99.90
2019-02-27T22:42:02.236Z,99.90
2019-02-27T22:44:30.951Z,99.90
2019-02-27T22:46:59.539Z,99.90
2019-02-27T22:49:28.104Z,99.90
2019-02-27T22:52:19.316Z,99.90
2019-02-27T22:55:07.398Z,99.90
2019-02-27T22:57:55.723Z,99.90
2019-02-27T23:01:23.684Z,99.90
2019-02-27T23:07:06.591Z,99.90
2019-02-27T23:09:57.509Z,99.90
2019-02-27T23:12:44.643Z,99.90
2019-02-27T23:15:13.283Z,99.90
2019-02-27T23:17:41.844Z,99.90
2019-02-27T23:20:10.544Z,99.90
2019-02-27T23:22:39.231Z,99.90
2019-02-27T23:25:07.929Z,99.90
2019-02-27T23:27:57.579Z,99.90
2019-02-27T23:30:46.916Z,99.90
2019-02-27T23:33:36.626Z,99.90
2019-02-27T23:36:24.694Z,99.90
2019-02-27T23:39:12.629Z,99.90
2019-02-27T23:42:00.565Z,99.90
2019-02-27T23:44:48.498Z,99.90
2019-02-27T23:47:36.419Z,99.90
2019-02-27T23:50:24.325Z,99.90
2019-02-27T23:53:12.325Z,99.90
2019-02-27T23:56:00.226Z,99.90
2019-02-27T23:58:29.455Z,99.90
